createdAt,value
2022-11-05T00:00:37.683Z,4.60
2022-11-05T00:03:33.775Z,5.03
2022-11-05T00:06:19.139Z,5.35
2022-11-05T00:09:04.383Z,5.50
2022-11-05T00:11:50.204Z,4.72
2022-11-05T00:14:35.579Z,5.10
2022-11-05T00:17:02.548Z,5.20
2022-11-05T00:19:29.561Z,5.03
2022-11-05T00:22:15.339Z,4.85
2022-11-05T00:25:00.780Z,4.65
2022-11-05T00:27:27.755Z,4.78
2022-11-05T00:29:54.859Z,5.82
2022-11-05T00:32:23.203Z,5.53
2022-11-05T00:34:50.214Z,5.63
2022-11-05T00:37:17.206Z,4.95
2022-11-05T00:39:44.274Z,5.55
2022-11-05T00:42:29.718Z,5.80
2022-11-05T00:45:02.858Z,5.60
2022-11-05T00:47:50.674Z,5.28
2022-11-05T00:50:19.321Z,5.63
2022-11-05T00:52:59.720Z,5.15
2022-11-05T00:55:28.686Z,5.32
2022-11-05T00:57:57.186Z,5.82
2022-11-05T01:00:27.594Z,5.28
2022-11-05T01:02:58.657Z,5.80
2022-11-05T01:05:26.128Z,4.93
2022-11-05T01:07:53.924Z,5.10
2022-11-05T01:10:21.741Z,4.15
2022-11-05T01:12:49.161Z,4.10
2022-11-05T01:15:17.792Z,3.92
2022-11-05T01:17:44.772Z,3.35
2022-11-05T01:20:12.729Z,3.47
2022-11-05T01:22:39.760Z,4.80
2022-11-05T01:25:08.326Z,3.72
2022-11-05T01:27:37.497Z,3.53
2022-11-05T01:30:07.750Z,3.22
2022-11-05T01:32:36.491Z,3.38
2022-11-05T01:35:06.029Z,3.35
2022-11-05T01:37:35.006Z,2.80
2022-11-05T01:40:02.377Z,3.05
2022-11-05T01:42:33.048Z,3.20
2022-11-05T01:45:03.336Z,2.55
2022-11-05T01:47:52.559Z,3.05
2022-11-05T01:50:37.512Z,3.50
2022-11-05T01:53:27.567Z,3.45
2022-11-05T01:56:05.361Z,3.17
2022-11-05T01:58:42.766Z,3.30
2022-11-05T02:01:09.991Z,2.72
2022-11-05T02:03:37.263Z,3.45
2022-11-05T02:06:09.301Z,4.40
2022-11-05T02:09:02.186Z,3.42
2022-11-05T02:11:29.709Z,3.45
2022-11-05T02:13:56.698Z,3.70
2022-11-05T02:16:47.221Z,4.03
2022-11-05T02:19:55.028Z,3.90
2022-11-05T02:22:48.904Z,3.85
2022-11-05T02:25:39.751Z,3.70
2022-11-05T02:28:18.521Z,4.30
2022-11-05T02:31:24.867Z,3.88
2022-11-05T02:34:28.634Z,3.17
2022-11-05T02:37:23.114Z,3.05
2022-11-05T02:40:16.863Z,4.43
2022-11-05T02:43:28.616Z,2.97
2022-11-05T02:46:20.961Z,3.90
2022-11-05T02:49:13.841Z,4.13
2022-11-05T02:51:58.400Z,3.72
2022-11-05T02:54:31.905Z,3.47
2022-11-05T02:57:00.886Z,3.50
2022-11-05T02:59:27.965Z,3.60
2022-11-05T03:01:55.754Z,4.13
2022-11-05T03:04:24.869Z,4.10
2022-11-05T03:07:24.007Z,3.88
2022-11-05T03:10:18.243Z,4.13
2022-11-05T03:13:16.625Z,4.00
2022-11-05T03:15:57.472Z,4.20
2022-11-05T03:18:51.362Z,4.80
2022-11-05T03:21:45.794Z,4.97
2022-11-05T03:24:31.595Z,4.63
2022-11-05T03:27:19.674Z,4.90
2022-11-05T03:29:54.154Z,4.45
2022-11-05T03:32:22.535Z,5.53
2022-11-05T03:35:08.326Z,4.22
2022-11-05T03:37:37.746Z,4.18
2022-11-05T03:40:08.488Z,4.68
2022-11-05T03:42:41.215Z,4.90
2022-11-05T03:45:16.014Z,4.93
2022-11-05T03:47:46.249Z,4.53
2022-11-05T03:50:35.860Z,5.20
2022-11-05T03:53:20.945Z,5.00
2022-11-05T03:56:35.849Z,5.43
2022-11-05T03:59:03.967Z,5.25
2022-11-05T04:01:31.769Z,6.03
2022-11-05T04:03:58.864Z,5.57
2022-11-05T04:06:44.828Z,6.45
2022-11-05T04:09:30.313Z,5.78
2022-11-05T04:12:16.192Z,6.22
2022-11-05T04:14:43.164Z,7.60
2022-11-05T04:17:10.272Z,7.82
2022-11-05T04:20:01.633Z,6.93
2022-11-05T04:22:50.603Z,6.65
2022-11-05T04:25:18.708Z,6.50
2022-11-05T04:27:46.504Z,5.97
2022-11-05T04:30:18.584Z,7.28
2022-11-05T04:35:48.274Z,5.85
2022-11-05T04:38:18.391Z,6.15
2022-11-05T04:40:47.035Z,5.65
2022-11-05T04:43:19.363Z,5.63
2022-11-05T04:45:47.534Z,4.70
2022-11-05T04:48:14.508Z,5.07
2022-11-05T04:50:41.523Z,7.47
2022-11-05T04:53:08.790Z,6.53
2022-11-05T04:55:35.903Z,7.85
2022-11-05T04:58:09.302Z,8.43
2022-11-05T05:00:36.821Z,7.32
2022-11-05T05:03:03.829Z,7.80
2022-11-05T05:05:35.750Z,8.05
2022-11-05T05:08:06.000Z,8.13
2022-11-05T05:10:33.109Z,9.43
2022-11-05T05:13:00.122Z,8.38
2022-11-05T05:15:27.193Z,8.60
2022-11-05T05:17:54.259Z,7.88
2022-11-05T05:20:39.538Z,8.50
2022-11-05T05:23:06.592Z,7.70
2022-11-05T05:25:33.547Z,8.00
2022-11-05T05:28:00.631Z,6.97
2022-11-05T05:30:27.670Z,9.20
2022-11-05T05:32:54.710Z,8.52
2022-11-05T05:35:21.857Z,9.00
2022-11-05T05:37:48.799Z,8.32
2022-11-05T05:40:15.773Z,9.07
2022-11-05T05:42:43.551Z,8.00
2022-11-05T05:45:12.366Z,7.97
2022-11-05T05:47:39.343Z,8.27
2022-11-05T05:50:06.633Z,8.02
2022-11-05T05:52:33.574Z,7.65
2022-11-05T05:55:00.730Z,9.18
2022-11-05T05:57:27.733Z,7.97
2022-11-05T05:59:54.695Z,8.20
2022-11-05T06:02:22.955Z,9.18
2022-11-05T06:04:50.164Z,8.23
2022-11-05T06:07:17.173Z,8.85
2022-11-05T06:09:44.141Z,8.50
2022-11-05T06:12:11.114Z,8.70
2022-11-05T06:14:38.086Z,7.90
2022-11-05T06:17:07.463Z,8.90
2022-11-05T06:19:34.416Z,7.88
2022-11-05T06:22:01.391Z,9.50
2022-11-05T06:24:28.366Z,9.07
2022-11-05T06:26:55.366Z,9.48
2022-11-05T06:29:22.466Z,9.55
2022-11-05T06:31:49.454Z,9.23
2022-11-05T06:34:16.408Z,9.00
2022-11-05T06:36:43.360Z,9.18
2022-11-05T06:39:11.853Z,9.30
2022-11-05T06:42:04.027Z,9.73
2022-11-05T06:44:26.160Z,8.88
2022-11-05T06:46:53.134Z,8.52
2022-11-05T06:49:22.408Z,9.60
2022-11-05T06:51:49.375Z,10.20
2022-11-05T06:54:16.349Z,8.90
2022-11-05T06:56:43.341Z,8.80
2022-11-05T06:59:10.346Z,10.55
2022-11-05T07:01:38.155Z,14.18
2022-11-05T07:04:05.236Z,10.43
2022-11-05T07:06:36.832Z,15.30
2022-11-05T07:09:04.513Z,9.20
2022-11-05T07:11:31.626Z,10.88
2022-11-05T07:13:58.637Z,9.45
2022-11-05T07:16:25.613Z,9.02
2022-11-05T07:18:53.088Z,8.77
2022-11-05T07:21:20.514Z,8.48
2022-11-05T07:23:48.518Z,9.55
2022-11-05T07:26:15.803Z,9.55
2022-11-05T07:28:42.747Z,8.90
2022-11-05T07:31:09.696Z,9.40
2022-11-05T07:33:36.972Z,9.40
2022-11-05T07:36:04.555Z,10.30
2022-11-05T07:38:31.606Z,9.60
2022-11-05T07:41:02.198Z,9.80
2022-11-05T07:43:29.221Z,10.82
2022-11-05T07:45:56.257Z,8.75
2022-11-05T07:48:23.812Z,9.63
2022-11-05T07:50:53.053Z,9.38
2022-11-05T07:53:23.136Z,9.60
2022-11-05T07:55:52.467Z,8.88
2022-11-05T07:58:19.411Z,9.20
2022-11-05T08:00:46.633Z,10.35
2022-11-05T08:03:17.487Z,10.07
2022-11-05T08:05:48.105Z,9.73
2022-11-05T08:08:18.386Z,9.95
2022-11-05T08:10:45.815Z,9.63
2022-11-05T08:13:13.760Z,10.50
2022-11-05T08:15:42.682Z,9.70
2022-11-05T08:18:16.393Z,9.13
2022-11-05T08:20:45.237Z,9.30
2022-11-05T08:23:13.071Z,9.00
2022-11-05T08:25:41.167Z,9.60
2022-11-05T08:28:13.997Z,8.00
2022-11-05T08:30:41.109Z,9.40
2022-11-05T08:33:12.289Z,8.50
2022-11-05T08:35:40.181Z,10.80
2022-11-05T08:38:09.894Z,8.30
2022-11-05T08:40:38.008Z,9.20
2022-11-05T08:43:07.204Z,8.93
2022-11-05T08:45:38.182Z,9.18
2022-11-05T08:48:12.589Z,8.57
2022-11-05T08:50:43.900Z,8.25
2022-11-05T08:53:12.020Z,9.20
2022-11-05T08:55:39.876Z,8.65
2022-11-05T08:58:12.519Z,8.85
2022-11-05T09:00:40.197Z,7.85
2022-11-05T09:03:09.878Z,9.35
2022-11-05T09:05:39.518Z,8.82
2022-11-05T09:08:18.332Z,8.30
2022-11-05T09:10:47.149Z,9.40
2022-11-05T09:13:18.696Z,8.73
2022-11-05T09:15:48.945Z,8.88
2022-11-05T09:18:18.074Z,7.90
2022-11-05T09:20:45.271Z,8.77
2022-11-05T09:23:14.875Z,8.90
2022-11-05T09:25:42.306Z,7.65
2022-11-05T09:28:20.281Z,7.70
2022-11-05T09:30:50.522Z,9.32
2022-11-05T09:33:21.649Z,9.63
2022-11-05T09:35:48.955Z,9.15
2022-11-05T09:38:16.564Z,7.90
2022-11-05T09:41:08.777Z,8.52
2022-11-05T09:43:48.435Z,8.73
2022-11-05T09:46:28.398Z,6.40
2022-11-05T09:49:05.094Z,9.05
2022-11-05T09:51:32.917Z,8.68
2022-11-05T09:54:03.821Z,8.32
2022-11-05T09:56:34.921Z,8.95
2022-11-05T09:59:23.163Z,7.68
2022-11-05T10:01:52.363Z,6.30
2022-11-05T10:04:24.563Z,7.78
2022-11-05T10:07:00.833Z,8.02
2022-11-05T10:10:02.375Z,7.47
2022-11-05T10:12:40.485Z,6.60
2022-11-05T10:15:28.365Z,6.68
2022-11-05T10:18:10.510Z,7.65
2022-11-05T10:20:39.254Z,7.75
2022-11-05T10:23:14.950Z,8.07
2022-11-05T10:25:47.373Z,11.13
2022-11-05T10:28:24.413Z,11.60
2022-11-05T10:30:58.155Z,8.82
2022-11-05T10:33:39.360Z,10.40
2022-11-05T10:36:11.652Z,6.22
2022-11-05T10:41:28.912Z,5.43
2022-11-05T10:44:24.205Z,5.80
2022-11-05T10:47:10.761Z,5.68
2022-11-05T10:49:46.396Z,4.70
2022-11-05T10:52:24.031Z,5.60
2022-11-05T10:54:53.973Z,5.55
2022-11-05T10:57:41.593Z,4.88
2022-11-05T11:00:23.472Z,5.95
2022-11-05T11:03:02.772Z,5.65
2022-11-05T11:05:39.735Z,5.25
2022-11-05T11:08:12.371Z,6.00
2022-11-05T11:10:55.934Z,5.38
2022-11-05T11:13:30.050Z,4.90
2022-11-05T11:16:20.375Z,4.95
2022-11-05T11:18:56.416Z,6.15
2022-11-05T11:21:24.166Z,6.18
2022-11-05T11:24:02.908Z,8.98
2022-11-05T11:26:37.839Z,11.93
2022-11-05T11:29:26.039Z,12.98
2022-11-05T11:32:00.106Z,15.48
2022-11-05T11:34:33.759Z,9.57
2022-11-05T11:37:28.981Z,6.90
2022-11-05T11:40:12.006Z,6.95
2022-11-05T11:42:45.412Z,6.57
2022-11-05T11:45:37.545Z,6.85
2022-11-05T11:48:19.100Z,6.43
2022-11-05T11:50:48.543Z,6.57
2022-11-05T11:53:29.170Z,6.90
2022-11-05T11:56:04.945Z,6.20
2022-11-05T11:58:50.621Z,6.57
2022-11-05T12:02:02.208Z,7.50
2022-11-05T12:05:07.068Z,6.72
2022-11-05T12:07:55.343Z,6.18
2022-11-05T12:10:48.871Z,7.07
2022-11-05T12:13:22.116Z,6.75
2022-11-05T12:16:01.907Z,6.82
2022-11-05T12:19:17.224Z,6.25
2022-11-05T12:22:10.117Z,5.90
2022-11-05T12:24:51.538Z,5.05
2022-11-05T12:27:52.187Z,6.22
2022-11-05T12:30:21.758Z,7.18
2022-11-05T12:33:25.257Z,6.00
2022-11-05T12:36:05.027Z,5.93
2022-11-05T12:38:40.805Z,6.68
2022-11-05T12:41:47.197Z,5.65
2022-11-05T12:44:50.450Z,6.63
2022-11-05T12:47:53.454Z,6.10
2022-11-05T12:51:10.637Z,7.05
2022-11-05T12:54:11.365Z,6.57
2022-11-05T12:56:56.749Z,6.45
2022-11-05T12:59:37.576Z,6.50
2022-11-05T13:02:26.174Z,6.35
2022-11-05T13:05:07.157Z,7.18
2022-11-05T13:07:39.309Z,6.50
2022-11-05T13:12:46.650Z,6.05
2022-11-05T13:15:41.459Z,5.97
2022-11-05T13:18:18.321Z,6.47
2022-11-05T13:20:50.398Z,5.93
2022-11-05T13:25:58.860Z,7.05
2022-11-05T13:28:56.727Z,7.40
2022-11-05T13:31:43.885Z,7.13
2022-11-05T13:34:20.181Z,6.18
2022-11-05T13:37:20.585Z,6.82
2022-11-05T13:39:59.364Z,6.28
2022-11-05T13:42:41.790Z,6.50
2022-11-05T13:45:35.057Z,6.45
2022-11-05T13:48:49.043Z,6.35
2022-11-05T13:51:52.824Z,6.60
2022-11-05T13:54:49.741Z,7.20
2022-11-05T13:57:49.868Z,7.45
2022-11-05T14:00:21.191Z,6.70
2022-11-05T14:03:03.085Z,7.65
2022-11-05T14:05:38.288Z,6.70
2022-11-05T14:08:11.865Z,6.95
2022-11-05T14:10:45.904Z,5.97
2022-11-05T14:13:42.311Z,6.63
2022-11-05T14:16:47.898Z,7.10
2022-11-05T14:19:27.485Z,5.57
2022-11-05T14:21:56.803Z,6.45
2022-11-05T14:24:23.980Z,8.13
2022-11-05T14:27:03.370Z,8.23
2022-11-05T14:29:47.832Z,7.78
2022-11-05T14:32:18.044Z,8.70
2022-11-05T14:34:56.208Z,8.10
2022-11-05T14:37:25.470Z,7.32
2022-11-05T14:39:55.069Z,8.13
2022-11-05T14:42:30.627Z,11.23
2022-11-05T14:45:23.287Z,17.27
2022-11-05T14:48:05.505Z,11.90
2022-11-05T14:50:51.147Z,11.45
2022-11-05T14:53:36.796Z,9.18
2022-11-05T14:56:12.399Z,7.55
2022-11-05T14:58:44.299Z,7.88
2022-11-05T15:01:14.266Z,7.68
2022-11-05T15:03:46.030Z,6.80
2022-11-05T15:06:29.696Z,8.07
2022-11-05T15:09:17.215Z,8.48
2022-11-05T15:11:56.573Z,7.50
2022-11-05T15:14:51.665Z,6.72
2022-11-05T15:17:39.328Z,5.95
2022-11-05T15:20:21.625Z,6.47
2022-11-05T15:25:30.579Z,5.97
2022-11-05T15:28:16.513Z,6.60
2022-11-05T15:31:04.909Z,6.45
2022-11-05T15:33:33.061Z,6.43
2022-11-05T15:36:27.973Z,5.63
2022-11-05T15:39:27.444Z,5.78
2022-11-05T15:41:43.499Z,5.28
2022-11-05T15:44:31.757Z,5.38
2022-11-05T15:47:36.795Z,4.75
2022-11-05T15:50:15.589Z,4.38
2022-11-05T15:52:51.666Z,6.40
2022-11-05T15:55:24.780Z,5.15
2022-11-05T15:58:01.329Z,5.82
2022-11-05T16:00:33.437Z,5.90
2022-11-05T16:03:07.843Z,7.57
2022-11-05T16:05:42.299Z,6.18
2022-11-05T16:08:19.916Z,6.65
2022-11-05T16:10:50.247Z,6.28
2022-11-05T16:13:34.518Z,7.25
2022-11-05T16:16:14.285Z,6.45
2022-11-05T16:18:42.924Z,4.15
2022-11-05T16:21:19.287Z,5.55
2022-11-05T16:23:49.262Z,5.05
2022-11-05T16:27:00.512Z,5.50
2022-11-05T16:29:22.187Z,6.38
2022-11-05T16:31:50.957Z,5.35
2022-11-05T16:34:35.813Z,5.72
2022-11-05T16:37:08.209Z,6.20
2022-11-05T16:39:35.210Z,6.25
2022-11-05T16:42:02.271Z,6.57
2022-11-05T16:44:29.478Z,6.13
2022-11-05T16:46:56.494Z,6.15
2022-11-05T16:49:23.579Z,5.03
2022-11-05T16:51:50.539Z,5.93
2022-11-05T16:54:17.781Z,6.88
2022-11-05T16:56:47.362Z,5.55
2022-11-05T16:59:14.356Z,4.82
2022-11-05T17:01:43.045Z,5.75
2022-11-05T17:04:13.075Z,5.45
2022-11-05T17:06:40.235Z,5.28
2022-11-05T17:09:07.261Z,5.78
2022-11-05T17:11:34.324Z,5.40
2022-11-05T17:14:01.339Z,5.38
2022-11-05T17:16:28.387Z,5.43
2022-11-05T17:18:55.420Z,4.80
2022-11-05T17:21:22.432Z,4.22
2022-11-05T17:23:49.510Z,5.00
2022-11-05T17:26:16.470Z,5.30
2022-11-05T17:28:43.593Z,4.80
2022-11-05T17:31:17.289Z,5.32
2022-11-05T17:33:44.466Z,4.93
2022-11-05T17:36:14.897Z,5.72
2022-11-05T17:38:42.173Z,5.28
2022-11-05T17:41:19.122Z,5.28
2022-11-05T17:43:47.387Z,4.82
2022-11-05T17:46:19.257Z,5.05
2022-11-05T17:48:46.656Z,5.53
2022-11-05T17:51:16.829Z,4.68
2022-11-05T17:53:44.862Z,5.32
2022-11-05T17:56:17.030Z,6.22
2022-11-05T17:58:49.415Z,6.88
2022-11-05T18:01:33.281Z,8.18
2022-11-05T18:04:07.134Z,9.50
2022-11-05T18:06:37.168Z,6.60
2022-11-05T18:09:06.696Z,11.65
2022-11-05T18:11:35.726Z,13.48
2022-11-05T18:14:03.884Z,6.50
2022-11-05T18:16:31.055Z,8.02
2022-11-05T18:18:58.094Z,6.57
2022-11-05T18:21:25.137Z,7.05
2022-11-05T18:23:52.307Z,8.07
2022-11-05T18:26:19.824Z,5.78
2022-11-05T18:28:47.168Z,5.90
2022-11-05T18:31:18.640Z,6.45
2022-11-05T18:33:46.167Z,5.57
2022-11-05T18:36:22.893Z,6.03
2022-11-05T18:38:50.479Z,5.88
2022-11-05T18:41:18.827Z,6.10
2022-11-05T18:43:46.219Z,6.43
2022-11-05T18:46:35.807Z,5.32
2022-11-05T18:49:01.584Z,6.43
2022-11-05T18:51:28.813Z,5.45
2022-11-05T18:53:56.307Z,5.05
2022-11-05T18:56:23.631Z,5.43
2022-11-05T18:59:14.757Z,7.40
2022-11-05T19:01:40.474Z,4.82
2022-11-05T19:04:07.973Z,5.55
2022-11-05T19:06:35.706Z,5.13
2022-11-05T19:09:03.175Z,5.05
2022-11-05T19:11:30.305Z,5.13
2022-11-05T19:13:57.703Z,5.22
2022-11-05T19:16:27.931Z,4.18
2022-11-05T19:18:58.567Z,4.18
2022-11-05T19:21:27.093Z,4.53
2022-11-05T19:23:56.712Z,4.50
2022-11-05T19:26:28.556Z,4.43
2022-11-05T19:28:59.467Z,5.72
2022-11-05T19:31:26.858Z,3.92
2022-11-05T19:33:55.095Z,4.57
2022-11-05T19:36:24.057Z,4.30
2022-11-05T19:39:03.485Z,5.63
2022-11-05T19:41:30.979Z,6.22
2022-11-05T19:43:59.156Z,4.90
2022-11-05T19:46:26.319Z,7.13
2022-11-05T19:48:53.973Z,6.28
2022-11-05T19:51:27.610Z,5.95
2022-11-05T19:53:55.966Z,5.70
2022-11-05T19:56:27.526Z,6.68
2022-11-05T19:58:54.748Z,5.78
2022-11-05T20:01:24.092Z,6.85
2022-11-05T20:03:51.994Z,7.63
2022-11-05T20:06:28.568Z,7.13
2022-11-05T20:11:45.466Z,4.85
2022-11-05T20:14:12.585Z,3.65
2022-11-05T20:16:40.363Z,4.43
2022-11-05T20:19:10.844Z,4.95
2022-11-05T20:21:38.418Z,5.28
2022-11-05T20:24:06.184Z,6.43
2022-11-05T20:26:33.792Z,5.38
2022-11-05T20:29:00.854Z,6.90
2022-11-05T20:31:27.914Z,5.80
2022-11-05T20:33:54.917Z,4.50
2022-11-05T20:36:24.303Z,4.05
2022-11-05T20:38:57.954Z,4.88
2022-11-05T20:41:26.283Z,3.92
2022-11-05T20:43:54.155Z,4.05
2022-11-05T20:46:22.617Z,4.43
2022-11-05T20:48:49.824Z,4.63
2022-11-05T20:51:20.463Z,5.40
2022-11-05T20:53:48.202Z,6.57
2022-11-05T20:56:25.827Z,7.13
2022-11-05T20:58:54.092Z,10.27
2022-11-05T21:01:21.277Z,10.85
2022-11-05T21:03:48.789Z,8.52
2022-11-05T21:06:16.554Z,6.43
2022-11-05T21:08:46.264Z,6.07
2022-11-05T21:11:13.504Z,6.25
2022-11-05T21:13:40.987Z,7.43
2022-11-05T21:16:14.031Z,8.50
2022-11-05T21:18:44.305Z,8.38
2022-11-05T21:21:19.295Z,7.80
2022-11-05T21:23:46.897Z,7.70
2022-11-05T21:26:15.199Z,5.97
2022-11-05T21:28:42.799Z,5.97
2022-11-05T21:31:10.339Z,7.13
2022-11-05T21:33:37.542Z,8.10
2022-11-05T21:36:11.062Z,8.70
2022-11-05T21:38:39.232Z,10.38
2022-11-05T21:41:07.451Z,13.13
2022-11-05T21:43:35.454Z,13.85
2022-11-05T21:46:04.150Z,12.10
2022-11-05T21:48:31.596Z,11.20
2022-11-05T21:51:17.604Z,11.15
2022-11-05T21:54:03.449Z,11.90
2022-11-05T21:56:49.483Z,13.48
2022-11-05T21:59:39.376Z,12.95
2022-11-05T22:02:08.011Z,11.20
2022-11-05T22:04:38.647Z,12.32
2022-11-05T22:07:07.784Z,10.60
2022-11-05T22:09:35.220Z,11.00
2022-11-05T22:12:02.741Z,9.63
2022-11-05T22:14:30.051Z,10.07
2022-11-05T22:16:57.874Z,9.48
2022-11-05T22:19:25.747Z,8.95
2022-11-05T22:21:52.993Z,9.23
2022-11-05T22:24:20.515Z,9.23
2022-11-05T22:26:48.246Z,8.30
2022-11-05T22:29:15.609Z,9.13
2022-11-05T22:31:43.190Z,8.07
2022-11-05T22:34:11.063Z,8.57
2022-11-05T22:36:38.551Z,7.25
2022-11-05T22:39:06.386Z,8.40
2022-11-05T22:41:34.087Z,6.95
2022-11-05T22:44:01.192Z,7.20
2022-11-05T22:46:28.242Z,7.50
2022-11-05T22:48:56.268Z,7.20
2022-11-05T22:51:29.471Z,7.10
2022-11-05T22:53:57.626Z,7.53
2022-11-05T22:56:29.211Z,7.47
2022-11-05T22:58:57.116Z,7.03
2022-11-05T23:01:25.296Z,9.30
2022-11-05T23:03:54.903Z,9.05
2022-11-05T23:06:43.914Z,8.27
2022-11-05T23:09:40.154Z,9.32
2022-11-05T23:12:30.072Z,9.85
2022-11-05T23:15:00.091Z,9.45
2022-11-05T23:17:46.438Z,8.60
2022-11-05T23:20:41.882Z,8.45
2022-11-05T23:23:31.472Z,8.45
2022-11-05T23:26:00.075Z,8.57
2022-11-05T23:28:27.343Z,8.15
2022-11-05T23:31:13.051Z,9.02
2022-11-05T23:33:40.046Z,8.63
2022-11-05T23:36:25.944Z,9.00
2022-11-05T23:38:52.886Z,7.80
2022-11-05T23:41:51.940Z,8.75
2022-11-05T23:44:37.629Z,9.52
2022-11-05T23:47:23.026Z,8.30
2022-11-05T23:49:50.007Z,7.45
2022-11-05T23:52:16.968Z,6.90
2022-11-05T23:54:43.968Z,7.55
2022-11-05T23:57:10.942Z,8.07
2022-11-05T23:59:37.944Z,7.32
